sensor_id;sensor_type;location;lat;lon;timestamp;temperature;humidity
17728;DHT22;8984;49.268;12.302;2022-08-14T00:00:28;21.10;99.90
17728;DHT22;8984;49.268;12.302;2022-08-14T00:02:56;21.10;99.90
17728;DHT22;8984;49.268;12.302;2022-08-14T00:05:23;21.00;99.90
17728;DHT22;8984;49.268;12.302;2022-08-14T00:07:50;21.00;99.90
17728;DHT22;8984;49.268;12.302;2022-08-14T00:10:19;20.90;99.90
17728;DHT22;8984;49.268;12.302;2022-08-14T00:12:48;20.90;99.90
17728;DHT22;8984;49.268;12.302;2022-08-14T00:15:18;20.90;99.90
17728;DHT22;8984;49.268;12.302;2022-08-14T00:17:46;20.90;99.90
17728;DHT22;8984;49.268;12.302;2022-08-14T00:20:16;20.90;99.90
17728;DHT22;8984;49.268;12.302;2022-08-14T00:22:43;20.90;99.90
17728;DHT22;8984;49.268;12.302;2022-08-14T00:25:10;20.90;99.90
17728;DHT22;8984;49.268;12.302;2022-08-14T00:27:37;20.90;99.90
17728;DHT22;8984;49.268;12.302;2022-08-14T00:30:06;20.90;99.90
17728;DHT22;8984;49.268;12.302;2022-08-14T00:32:33;20.90;99.90
17728;DHT22;8984;49.268;12.302;2022-08-14T00:35:00;20.80;99.90
17728;DHT22;8984;49.268;12.302;2022-08-14T00:37:29;20.70;99.90
17728;DHT22;8984;49.268;12.302;2022-08-14T00:39:56;20.70;99.90
17728;DHT22;8984;49.268;12.302;2022-08-14T00:42:24;20.70;99.90
17728;DHT22;8984;49.268;12.302;2022-08-14T00:44:53;20.70;99.90
17728;DHT22;8984;49.268;12.302;2022-08-14T00:47:21;20.70;99.90
17728;DHT22;8984;49.268;12.302;2022-08-14T00:49:49;20.60;99.90
17728;DHT22;8984;49.268;12.302;2022-08-14T00:52:17;20.60;99.90
17728;DHT22;8984;49.268;12.302;2022-08-14T00:54:49;20.60;99.90
17728;DHT22;8984;49.268;12.302;2022-08-14T00:57:20;20.60;99.90
17728;DHT22;8984;49.268;12.302;2022-08-14T00:59:47;20.50;99.90
17728;DHT22;8984;49.268;12.302;2022-08-14T01:02:17;20.60;99.90
17728;DHT22;8984;49.268;12.302;2022-08-14T01:04:50;20.50;99.90
17728;DHT22;8984;49.268;12.302;2022-08-14T01:07:19;20.50;99.90
17728;DHT22;8984;49.268;12.302;2022-08-14T01:09:50;20.40;99.90
17728;DHT22;8984;49.268;12.302;2022-08-14T01:12:18;20.30;99.90
17728;DHT22;8984;49.268;12.302;2022-08-14T01:14:46;20.30;99.90
17728;DHT22;8984;49.268;12.302;2022-08-14T01:17:18;20.30;99.90
17728;DHT22;8984;49.268;12.302;2022-08-14T01:19:45;20.30;99.90
17728;DHT22;8984;49.268;12.302;2022-08-14T01:22:30;20.30;99.90
17728;DHT22;8984;49.268;12.302;2022-08-14T01:24:58;20.20;99.90
17728;DHT22;8984;49.268;12.302;2022-08-14T01:27:25;20.20;99.90
17728;DHT22;8984;49.268;12.302;2022-08-14T01:29:55;20.20;99.90
17728;DHT22;8984;49.268;12.302;2022-08-14T01:32:22;20.10;99.90
17728;DHT22;8984;49.268;12.302;2022-08-14T01:34:51;20.10;99.90
17728;DHT22;8984;49.268;12.302;2022-08-14T01:37:19;20.10;99.90
17728;DHT22;8984;49.268;12.302;2022-08-14T01:39:50;20.10;99.90
17728;DHT22;8984;49.268;12.302;2022-08-14T01:42:17;20.00;99.90
17728;DHT22;8984;49.268;12.302;2022-08-14T01:44:45;20.00;99.90
17728;DHT22;8984;49.268;12.302;2022-08-14T01:47:17;20.00;99.90
17728;DHT22;8984;49.268;12.302;2022-08-14T01:49:43;20.00;99.90
17728;DHT22;8984;49.268;12.302;2022-08-14T01:52:11;19.90;99.90
17728;DHT22;8984;49.268;12.302;2022-08-14T01:54:38;19.90;99.90
17728;DHT22;8984;49.268;12.302;2022-08-14T01:57:06;19.90;99.90
17728;DHT22;8984;49.268;12.302;2022-08-14T01:59:37;19.90;99.90
17728;DHT22;8984;49.268;12.302;2022-08-14T02:02:09;19.80;99.90
17728;DHT22;8984;49.268;12.302;2022-08-14T02:04:39;19.80;99.90
17728;DHT22;8984;49.268;12.302;2022-08-14T02:07:06;19.70;99.90
17728;DHT22;8984;49.268;12.302;2022-08-14T02:09:35;19.70;99.90
17728;DHT22;8984;49.268;12.302;2022-08-14T02:12:06;19.60;99.90
17728;DHT22;8984;49.268;12.302;2022-08-14T02:14:33;19.60;99.90
17728;DHT22;8984;49.268;12.302;2022-08-14T02:17:01;19.50;99.90
17728;DHT22;8984;49.268;12.302;2022-08-14T02:19:30;19.60;99.90
17728;DHT22;8984;49.268;12.302;2022-08-14T02:21:58;19.60;99.90
17728;DHT22;8984;49.268;12.302;2022-08-14T02:24:28;19.50;99.90
17728;DHT22;8984;49.268;12.302;2022-08-14T02:26:56;19.60;99.90
17728;DHT22;8984;49.268;12.302;2022-08-14T02:29:29;19.60;99.90
17728;DHT22;8984;49.268;12.302;2022-08-14T02:31:58;19.60;99.90
17728;DHT22;8984;49.268;12.302;2022-08-14T02:34:27;19.50;99.90
17728;DHT22;8984;49.268;12.302;2022-08-14T02:36:57;19.50;99.90
17728;DHT22;8984;49.268;12.302;2022-08-14T02:39:25;19.50;99.90
17728;DHT22;8984;49.268;12.302;2022-08-14T02:41:53;19.40;99.90
17728;DHT22;8984;49.268;12.302;2022-08-14T02:44:19;19.40;99.90
17728;DHT22;8984;49.268;12.302;2022-08-14T02:46:50;19.40;99.90
17728;DHT22;8984;49.268;12.302;2022-08-14T02:49:17;19.40;99.90
17728;DHT22;8984;49.268;12.302;2022-08-14T02:51:54;19.40;99.90
17728;DHT22;8984;49.268;12.302;2022-08-14T02:54:22;19.40;99.90
17728;DHT22;8984;49.268;12.302;2022-08-14T02:56:49;19.40;99.90
17728;DHT22;8984;49.268;12.302;2022-08-14T02:59:18;19.40;99.90
17728;DHT22;8984;49.268;12.302;2022-08-14T03:01:45;19.30;99.90
17728;DHT22;8984;49.268;12.302;2022-08-14T03:04:14;19.30;99.90
17728;DHT22;8984;49.268;12.302;2022-08-14T03:06:45;19.20;99.90
17728;DHT22;8984;49.268;12.302;2022-08-14T03:09:12;19.20;99.90
17728;DHT22;8984;49.268;12.302;2022-08-14T03:11:39;19.20;99.90
17728;DHT22;8984;49.268;12.302;2022-08-14T03:14:09;19.20;99.90
17728;DHT22;8984;49.268;12.302;2022-08-14T03:16:37;19.10;99.90
17728;DHT22;8984;49.268;12.302;2022-08-14T03:19:06;19.10;99.90
17728;DHT22;8984;49.268;12.302;2022-08-14T03:21:35;19.10;99.90
17728;DHT22;8984;49.268;12.302;2022-08-14T03:24:05;19.10;99.90
17728;DHT22;8984;49.268;12.302;2022-08-14T03:26:39;19.10;99.90
17728;DHT22;8984;49.268;12.302;2022-08-14T03:29:07;19.10;99.90
17728;DHT22;8984;49.268;12.302;2022-08-14T03:31:34;19.00;99.90
17728;DHT22;8984;49.268;12.302;2022-08-14T03:34:02;19.10;99.90
17728;DHT22;8984;49.268;12.302;2022-08-14T03:36:31;18.90;99.90
17728;DHT22;8984;49.268;12.302;2022-08-14T03:39:00;19.00;99.90
17728;DHT22;8984;49.268;12.302;2022-08-14T03:41:28;19.00;99.90
17728;DHT22;8984;49.268;12.302;2022-08-14T03:43:58;18.90;99.90
17728;DHT22;8984;49.268;12.302;2022-08-14T03:46:26;18.90;99.90
17728;DHT22;8984;49.268;12.302;2022-08-14T03:48:55;18.90;99.90
17728;DHT22;8984;49.268;12.302;2022-08-14T03:51:23;18.90;99.90
17728;DHT22;8984;49.268;12.302;2022-08-14T03:53:51;18.90;99.90
17728;DHT22;8984;49.268;12.302;2022-08-14T03:56:20;18.80;99.90
17728;DHT22;8984;49.268;12.302;2022-08-14T03:58:49;18.80;99.90
17728;DHT22;8984;49.268;12.302;2022-08-14T04:01:19;18.70;99.90
17728;DHT22;8984;49.268;12.302;2022-08-14T04:03:48;18.70;99.90
17728;DHT22;8984;49.268;12.302;2022-08-14T04:06:16;18.70;99.90
17728;DHT22;8984;49.268;12.302;2022-08-14T04:08:45;18.70;99.90
17728;DHT22;8984;49.268;12.302;2022-08-14T04:11:14;18.70;99.90
17728;DHT22;8984;49.268;12.302;2022-08-14T04:13:43;18.80;99.90
17728;DHT22;8984;49.268;12.302;2022-08-14T04:16:12;18.70;99.90
17728;DHT22;8984;49.268;12.302;2022-08-14T04:18:41;18.70;99.90
17728;DHT22;8984;49.268;12.302;2022-08-14T04:21:09;18.70;99.90
17728;DHT22;8984;49.268;12.302;2022-08-14T04:23:36;18.60;99.90
17728;DHT22;8984;49.268;12.302;2022-08-14T04:26:05;18.70;99.90
17728;DHT22;8984;49.268;12.302;2022-08-14T04:28:34;18.70;99.90
17728;DHT22;8984;49.268;12.302;2022-08-14T04:31:04;18.70;99.90
17728;DHT22;8984;49.268;12.302;2022-08-14T04:33:31;18.70;99.90
17728;DHT22;8984;49.268;12.302;2022-08-14T04:35:58;18.70;99.90
17728;DHT22;8984;49.268;12.302;2022-08-14T04:38:25;19.00;99.90
17728;DHT22;8984;49.268;12.302;2022-08-14T04:41:21;19.30;99.90
17728;DHT22;8984;49.268;12.302;2022-08-14T04:44:06;20.00;99.90
17728;DHT22;8984;49.268;12.302;2022-08-14T04:46:35;20.70;99.90
17728;DHT22;8984;49.268;12.302;2022-08-14T04:49:03;21.50;99.90
17728;DHT22;8984;49.268;12.302;2022-08-14T04:51:29;22.00;99.90
17728;DHT22;8984;49.268;12.302;2022-08-14T04:53:57;22.50;99.90
17728;DHT22;8984;49.268;12.302;2022-08-14T04:56:25;23.00;99.90
17728;DHT22;8984;49.268;12.302;2022-08-14T04:58:54;23.50;99.90
17728;DHT22;8984;49.268;12.302;2022-08-14T05:01:25;23.90;99.90
17728;DHT22;8984;49.268;12.302;2022-08-14T05:03:53;24.40;99.20
17728;DHT22;8984;49.268;12.302;2022-08-14T05:06:20;24.80;98.30
17728;DHT22;8984;49.268;12.302;2022-08-14T05:08:47;25.20;97.30
17728;DHT22;8984;49.268;12.302;2022-08-14T05:11:14;25.60;96.70
17728;DHT22;8984;49.268;12.302;2022-08-14T05:13:43;25.90;96.60
17728;DHT22;8984;49.268;12.302;2022-08-14T05:16:11;26.10;95.70
17728;DHT22;8984;49.268;12.302;2022-08-14T05:18:38;26.20;95.60
17728;DHT22;8984;49.268;12.302;2022-08-14T05:21:08;26.30;95.30
17728;DHT22;8984;49.268;12.302;2022-08-14T05:23:37;26.50;95.20
17728;DHT22;8984;49.268;12.302;2022-08-14T05:26:05;26.70;94.60
17728;DHT22;8984;49.268;12.302;2022-08-14T05:28:38;26.90;94.40
17728;DHT22;8984;49.268;12.302;2022-08-14T05:31:06;27.10;94.30
17728;DHT22;8984;49.268;12.302;2022-08-14T05:33:35;27.10;94.20
17728;DHT22;8984;49.268;12.302;2022-08-14T05:36:04;27.10;94.30
17728;DHT22;8984;49.268;12.302;2022-08-14T05:38:34;27.20;94.10
17728;DHT22;8984;49.268;12.302;2022-08-14T05:41:02;27.30;93.90
17728;DHT22;8984;49.268;12.302;2022-08-14T05:43:29;27.30;93.70
17728;DHT22;8984;49.268;12.302;2022-08-14T05:45:56;27.30;93.90
17728;DHT22;8984;49.268;12.302;2022-08-14T05:48:24;27.20;94.20
17728;DHT22;8984;49.268;12.302;2022-08-14T05:50:52;27.10;94.50
17728;DHT22;8984;49.268;12.302;2022-08-14T05:53:20;27.00;94.90
17728;DHT22;8984;49.268;12.302;2022-08-14T05:55:48;26.80;95.30
17728;DHT22;8984;49.268;12.302;2022-08-14T05:58:15;26.60;95.70
17728;DHT22;8984;49.268;12.302;2022-08-14T06:00:43;26.70;96.00
17728;DHT22;8984;49.268;12.302;2022-08-14T06:03:12;26.70;96.00
17728;DHT22;8984;49.268;12.302;2022-08-14T06:05:41;26.90;96.20
17728;DHT22;8984;49.268;12.302;2022-08-14T06:08:17;27.00;96.10
17728;DHT22;8984;49.268;12.302;2022-08-14T06:10:44;27.20;95.90
17728;DHT22;8984;49.268;12.302;2022-08-14T06:13:13;27.30;95.60
17728;DHT22;8984;49.268;12.302;2022-08-14T06:15:41;27.50;95.50
17728;DHT22;8984;49.268;12.302;2022-08-14T06:18:08;27.30;95.70
17728;DHT22;8984;49.268;12.302;2022-08-14T06:20:36;27.30;95.90
17728;DHT22;8984;49.268;12.302;2022-08-14T06:23:03;27.40;96.00
17728;DHT22;8984;49.268;12.302;2022-08-14T06:25:30;27.30;96.10
17728;DHT22;8984;49.268;12.302;2022-08-14T06:27:57;27.20;97.00
17728;DHT22;8984;49.268;12.302;2022-08-14T06:30:27;27.10;96.70
17728;DHT22;8984;49.268;12.302;2022-08-14T06:32:55;27.00;96.60
17728;DHT22;8984;49.268;12.302;2022-08-14T06:35:21;27.00;96.90
17728;DHT22;8984;49.268;12.302;2022-08-14T06:37:50;27.00;96.90
17728;DHT22;8984;49.268;12.302;2022-08-14T06:40:19;27.00;97.10
17728;DHT22;8984;49.268;12.302;2022-08-14T06:42:46;27.00;97.00
17728;DHT22;8984;49.268;12.302;2022-08-14T06:45:13;26.90;96.80
17728;DHT22;8984;49.268;12.302;2022-08-14T06:47:43;26.90;97.00
17728;DHT22;8984;49.268;12.302;2022-08-14T06:50:12;27.00;97.10
17728;DHT22;8984;49.268;12.302;2022-08-14T06:52:40;27.00;97.10
17728;DHT22;8984;49.268;12.302;2022-08-14T06:55:09;27.20;96.80
17728;DHT22;8984;49.268;12.302;2022-08-14T06:57:40;27.00;96.50
17728;DHT22;8984;49.268;12.302;2022-08-14T07:00:10;27.10;96.90
17728;DHT22;8984;49.268;12.302;2022-08-14T07:02:37;27.00;97.00
17728;DHT22;8984;49.268;12.302;2022-08-14T07:05:23;26.90;97.10
17728;DHT22;8984;49.268;12.302;2022-08-14T07:08:12;27.00;97.10
17728;DHT22;8984;49.268;12.302;2022-08-14T07:10:40;26.90;97.10
17728;DHT22;8984;49.268;12.302;2022-08-14T07:13:09;27.00;97.00
17728;DHT22;8984;49.268;12.302;2022-08-14T07:15:36;26.90;97.20
17728;DHT22;8984;49.268;12.302;2022-08-14T07:18:04;26.90;97.20
17728;DHT22;8984;49.268;12.302;2022-08-14T07:20:32;27.00;97.10
17728;DHT22;8984;49.268;12.302;2022-08-14T07:23:00;27.10;96.70
17728;DHT22;8984;49.268;12.302;2022-08-14T07:25:27;27.30;96.80
17728;DHT22;8984;49.268;12.302;2022-08-14T07:27:54;27.00;97.10
17728;DHT22;8984;49.268;12.302;2022-08-14T07:30:21;27.30;96.50
17728;DHT22;8984;49.268;12.302;2022-08-14T07:32:48;27.30;96.40
17728;DHT22;8984;49.268;12.302;2022-08-14T07:35:15;27.30;96.40
17728;DHT22;8984;49.268;12.302;2022-08-14T07:37:46;27.30;96.40
17728;DHT22;8984;49.268;12.302;2022-08-14T07:40:13;27.10;96.60
17728;DHT22;8984;49.268;12.302;2022-08-14T07:42:40;27.30;96.20
17728;DHT22;8984;49.268;12.302;2022-08-14T07:45:07;27.50;95.70
17728;DHT22;8984;49.268;12.302;2022-08-14T07:47:39;27.70;95.20
17728;DHT22;8984;49.268;12.302;2022-08-14T07:50:11;28.10;95.00
17728;DHT22;8984;49.268;12.302;2022-08-14T07:52:38;27.80;94.50
17728;DHT22;8984;49.268;12.302;2022-08-14T07:55:07;27.90;94.70
17728;DHT22;8984;49.268;12.302;2022-08-14T07:57:34;28.20;94.40
17728;DHT22;8984;49.268;12.302;2022-08-14T08:00:05;28.20;93.50
17728;DHT22;8984;49.268;12.302;2022-08-14T08:02:33;28.00;93.50
17728;DHT22;8984;49.268;12.302;2022-08-14T08:05:01;27.70;94.00
17728;DHT22;8984;49.268;12.302;2022-08-14T08:07:29;27.70;94.20
17728;DHT22;8984;49.268;12.302;2022-08-14T08:09:57;27.60;93.70
17728;DHT22;8984;49.268;12.302;2022-08-14T08:12:26;27.40;92.80
17728;DHT22;8984;49.268;12.302;2022-08-14T08:14:56;27.20;93.50
17728;DHT22;8984;49.268;12.302;2022-08-14T08:17:24;27.20;93.50
17728;DHT22;8984;49.268;12.302;2022-08-14T08:19:53;27.20;93.50
17728;DHT22;8984;49.268;12.302;2022-08-14T08:22:21;27.10;93.60
17728;DHT22;8984;49.268;12.302;2022-08-14T08:24:48;27.10;93.40
17728;DHT22;8984;49.268;12.302;2022-08-14T08:27:15;27.30;93.50
17728;DHT22;8984;49.268;12.302;2022-08-14T08:29:44;27.50;93.20
17728;DHT22;8984;49.268;12.302;2022-08-14T08:32:10;27.90;92.90
17728;DHT22;8984;49.268;12.302;2022-08-14T08:34:44;27.90;92.50
17728;DHT22;8984;49.268;12.302;2022-08-14T08:37:11;27.90;92.20
17728;DHT22;8984;49.268;12.302;2022-08-14T08:39:42;27.70;92.10
17728;DHT22;8984;49.268;12.302;2022-08-14T08:42:09;27.60;92.40
17728;DHT22;8984;49.268;12.302;2022-08-14T08:44:36;27.30;92.40
17728;DHT22;8984;49.268;12.302;2022-08-14T08:47:04;27.30;92.60
17728;DHT22;8984;49.268;12.302;2022-08-14T08:49:37;27.40;92.20
17728;DHT22;8984;49.268;12.302;2022-08-14T08:52:06;27.30;92.40
17728;DHT22;8984;49.268;12.302;2022-08-14T08:54:33;27.50;92.20
17728;DHT22;8984;49.268;12.302;2022-08-14T08:57:00;27.50;91.60
17728;DHT22;8984;49.268;12.302;2022-08-14T08:59:29;27.50;91.70
17728;DHT22;8984;49.268;12.302;2022-08-14T09:01:58;27.80;91.80
17728;DHT22;8984;49.268;12.302;2022-08-14T09:04:28;27.90;91.60
17728;DHT22;8984;49.268;12.302;2022-08-14T09:06:56;28.00;91.60
17728;DHT22;8984;49.268;12.302;2022-08-14T09:09:24;28.00;91.30
17728;DHT22;8984;49.268;12.302;2022-08-14T09:11:52;28.00;90.70
17728;DHT22;8984;49.268;12.302;2022-08-14T09:14:20;28.00;90.40
17728;DHT22;8984;49.268;12.302;2022-08-14T09:16:48;27.80;90.90
17728;DHT22;8984;49.268;12.302;2022-08-14T09:19:15;27.80;90.90
17728;DHT22;8984;49.268;12.302;2022-08-14T09:21:43;28.20;90.70
17728;DHT22;8984;49.268;12.302;2022-08-14T09:24:11;28.30;90.60
17728;DHT22;8984;49.268;12.302;2022-08-14T09:26:39;28.20;90.90
17728;DHT22;8984;49.268;12.302;2022-08-14T09:29:08;28.40;90.50
17728;DHT22;8984;49.268;12.302;2022-08-14T09:31:37;28.40;90.50
17728;DHT22;8984;49.268;12.302;2022-08-14T09:34:12;28.30;90.70
17728;DHT22;8984;49.268;12.302;2022-08-14T09:39:41;28.20;90.70
17728;DHT22;8984;49.268;12.302;2022-08-14T09:42:35;28.20;90.90
17728;DHT22;8984;49.268;12.302;2022-08-14T09:45:23;28.40;91.10
17728;DHT22;8984;49.268;12.302;2022-08-14T09:47:55;28.50;90.90
17728;DHT22;8984;49.268;12.302;2022-08-14T09:50:24;28.50;91.00
17728;DHT22;8984;49.268;12.302;2022-08-14T09:52:56;28.60;90.80
17728;DHT22;8984;49.268;12.302;2022-08-14T09:55:25;28.50;91.10
17728;DHT22;8984;49.268;12.302;2022-08-14T09:58:08;28.70;90.70
17728;DHT22;8984;49.268;12.302;2022-08-14T10:00:43;29.20;90.30
17728;DHT22;8984;49.268;12.302;2022-08-14T10:03:10;29.40;90.20
17728;DHT22;8984;49.268;12.302;2022-08-14T10:05:37;29.60;90.00
17728;DHT22;8984;49.268;12.302;2022-08-14T10:08:16;29.60;89.20
17728;DHT22;8984;49.268;12.302;2022-08-14T10:10:44;29.80;89.70
17728;DHT22;8984;49.268;12.302;2022-08-14T10:13:21;30.10;89.60
17728;DHT22;8984;49.268;12.302;2022-08-14T10:15:48;30.50;87.70
17728;DHT22;8984;49.268;12.302;2022-08-14T10:18:17;30.70;87.90
17728;DHT22;8984;49.268;12.302;2022-08-14T10:20:53;30.80;86.30
17728;DHT22;8984;49.268;12.302;2022-08-14T10:23:25;30.80;86.10
17728;DHT22;8984;49.268;12.302;2022-08-14T10:25:56;30.80;85.90
17728;DHT22;8984;49.268;12.302;2022-08-14T10:28:37;31.10;85.70
17728;DHT22;8984;49.268;12.302;2022-08-14T10:31:15;31.50;85.20
17728;DHT22;8984;49.268;12.302;2022-08-14T10:33:42;31.70;83.90
17728;DHT22;8984;49.268;12.302;2022-08-14T10:36:10;32.10;83.70
17728;DHT22;8984;49.268;12.302;2022-08-14T10:38:39;32.00;80.80
17728;DHT22;8984;49.268;12.302;2022-08-14T10:41:11;31.70;81.50
17728;DHT22;8984;49.268;12.302;2022-08-14T10:43:38;31.10;82.40
17728;DHT22;8984;49.268;12.302;2022-08-14T10:46:12;30.90;83.70
17728;DHT22;8984;49.268;12.302;2022-08-14T10:48:40;30.80;81.30
17728;DHT22;8984;49.268;12.302;2022-08-14T10:51:07;30.90;82.80
17728;DHT22;8984;49.268;12.302;2022-08-14T10:53:35;31.00;82.70
17728;DHT22;8984;49.268;12.302;2022-08-14T10:56:08;30.50;83.20
17728;DHT22;8984;49.268;12.302;2022-08-14T10:58:35;30.10;83.80
17728;DHT22;8984;49.268;12.302;2022-08-14T11:01:02;30.40;83.50
17728;DHT22;8984;49.268;12.302;2022-08-14T11:03:39;30.70;82.90
17728;DHT22;8984;49.268;12.302;2022-08-14T11:06:19;31.00;82.30
17728;DHT22;8984;49.268;12.302;2022-08-14T11:08:47;30.90;81.30
17728;DHT22;8984;49.268;12.302;2022-08-14T11:11:18;30.60;82.00
17728;DHT22;8984;49.268;12.302;2022-08-14T11:13:45;30.10;82.20
17728;DHT22;8984;49.268;12.302;2022-08-14T11:16:13;29.90;83.30
17728;DHT22;8984;49.268;12.302;2022-08-14T11:18:44;29.60;83.80
17728;DHT22;8984;49.268;12.302;2022-08-14T11:21:14;29.30;83.80
17728;DHT22;8984;49.268;12.302;2022-08-14T11:23:45;29.10;83.70
17728;DHT22;8984;49.268;12.302;2022-08-14T11:26:14;29.50;84.10
17728;DHT22;8984;49.268;12.302;2022-08-14T11:28:45;29.50;83.30
17728;DHT22;8984;49.268;12.302;2022-08-14T11:31:14;29.60;83.30
17728;DHT22;8984;49.268;12.302;2022-08-14T11:33:41;29.50;84.10
17728;DHT22;8984;49.268;12.302;2022-08-14T11:36:11;29.40;83.90
17728;DHT22;8984;49.268;12.302;2022-08-14T11:38:39;29.50;83.80
17728;DHT22;8984;49.268;12.302;2022-08-14T11:41:06;29.60;83.40
17728;DHT22;8984;49.268;12.302;2022-08-14T11:43:37;29.70;83.30
17728;DHT22;8984;49.268;12.302;2022-08-14T11:46:07;29.70;83.10
17728;DHT22;8984;49.268;12.302;2022-08-14T11:48:45;30.00;83.60
17728;DHT22;8984;49.268;12.302;2022-08-14T11:51:13;30.30;82.20
17728;DHT22;8984;49.268;12.302;2022-08-14T11:53:52;30.60;80.90
17728;DHT22;8984;49.268;12.302;2022-08-14T11:56:19;30.50;80.30
17728;DHT22;8984;49.268;12.302;2022-08-14T11:58:50;30.70;79.70
17728;DHT22;8984;49.268;12.302;2022-08-14T12:01:24;30.80;80.10
17728;DHT22;8984;49.268;12.302;2022-08-14T12:03:53;31.00;79.60
17728;DHT22;8984;49.268;12.302;2022-08-14T12:06:25;31.10;78.90
17728;DHT22;8984;49.268;12.302;2022-08-14T12:08:55;31.40;78.80
17728;DHT22;8984;49.268;12.302;2022-08-14T12:11:22;31.60;77.70
17728;DHT22;8984;49.268;12.302;2022-08-14T12:13:49;31.80;77.20
17728;DHT22;8984;49.268;12.302;2022-08-14T12:16:17;31.60;76.40
17728;DHT22;8984;49.268;12.302;2022-08-14T12:18:47;31.90;76.80
17728;DHT22;8984;49.268;12.302;2022-08-14T12:21:17;31.90;77.10
17728;DHT22;8984;49.268;12.302;2022-08-14T12:23:46;31.90;77.10
17728;DHT22;8984;49.268;12.302;2022-08-14T12:26:15;31.70;76.70
17728;DHT22;8984;49.268;12.302;2022-08-14T12:28:47;31.40;76.50
17728;DHT22;8984;49.268;12.302;2022-08-14T12:31:16;31.10;77.80
17728;DHT22;8984;49.268;12.302;2022-08-14T12:33:56;30.80;78.10
17728;DHT22;8984;49.268;12.302;2022-08-14T12:36:25;30.40;78.70
17728;DHT22;8984;49.268;12.302;2022-08-14T12:38:55;30.40;79.60
17728;DHT22;8984;49.268;12.302;2022-08-14T12:41:24;30.30;79.70
17728;DHT22;8984;49.268;12.302;2022-08-14T12:43:53;30.10;80.30
17728;DHT22;8984;49.268;12.302;2022-08-14T12:46:23;30.20;80.00
17728;DHT22;8984;49.268;12.302;2022-08-14T12:48:50;30.20;80.40
17728;DHT22;8984;49.268;12.302;2022-08-14T12:51:19;30.30;80.70
17728;DHT22;8984;49.268;12.302;2022-08-14T12:53:47;30.40;80.10
17728;DHT22;8984;49.268;12.302;2022-08-14T12:56:17;30.40;80.20
17728;DHT22;8984;49.268;12.302;2022-08-14T12:58:47;30.20;79.60
17728;DHT22;8984;49.268;12.302;2022-08-14T13:01:20;30.20;80.10
17728;DHT22;8984;49.268;12.302;2022-08-14T13:03:47;30.20;80.40
17728;DHT22;8984;49.268;12.302;2022-08-14T13:06:14;30.20;79.80
17728;DHT22;8984;49.268;12.302;2022-08-14T13:08:44;30.30;79.70
17728;DHT22;8984;49.268;12.302;2022-08-14T13:11:12;30.40;79.10
17728;DHT22;8984;49.268;12.302;2022-08-14T13:13:41;30.30;79.30
17728;DHT22;8984;49.268;12.302;2022-08-14T13:16:10;30.20;78.80
17728;DHT22;8984;49.268;12.302;2022-08-14T13:18:40;30.40;78.60
17728;DHT22;8984;49.268;12.302;2022-08-14T13:21:10;30.50;78.90
17728;DHT22;8984;49.268;12.302;2022-08-14T13:23:40;30.70;78.90
17728;DHT22;8984;49.268;12.302;2022-08-14T13:26:09;31.00;78.10
17728;DHT22;8984;49.268;12.302;2022-08-14T13:28:39;31.00;78.10
17728;DHT22;8984;49.268;12.302;2022-08-14T13:31:08;30.80;78.10
17728;DHT22;8984;49.268;12.302;2022-08-14T13:33:38;30.90;78.40
17728;DHT22;8984;49.268;12.302;2022-08-14T13:36:06;30.90;77.60
17728;DHT22;8984;49.268;12.302;2022-08-14T13:38:35;31.10;76.80
17728;DHT22;8984;49.268;12.302;2022-08-14T13:41:02;31.40;76.30
17728;DHT22;8984;49.268;12.302;2022-08-14T13:43:31;31.70;76.10
17728;DHT22;8984;49.268;12.302;2022-08-14T13:45:58;32.10;75.40
17728;DHT22;8984;49.268;12.302;2022-08-14T13:48:25;32.10;74.50
17728;DHT22;8984;49.268;12.302;2022-08-14T13:50:54;32.10;74.40
17728;DHT22;8984;49.268;12.302;2022-08-14T13:53:24;32.10;74.20
17728;DHT22;8984;49.268;12.302;2022-08-14T13:55:51;32.10;75.10
17728;DHT22;8984;49.268;12.302;2022-08-14T13:58:20;32.20;75.00
17728;DHT22;8984;49.268;12.302;2022-08-14T14:00:50;32.30;75.10
17728;DHT22;8984;49.268;12.302;2022-08-14T14:03:18;32.50;75.00
17728;DHT22;8984;49.268;12.302;2022-08-14T14:05:49;32.60;74.30
17728;DHT22;8984;49.268;12.302;2022-08-14T14:08:16;32.70;73.40
17728;DHT22;8984;49.268;12.302;2022-08-14T14:10:46;32.40;73.00
17728;DHT22;8984;49.268;12.302;2022-08-14T14:13:14;32.20;73.60
17728;DHT22;8984;49.268;12.302;2022-08-14T14:15:42;32.00;74.20
17728;DHT22;8984;49.268;12.302;2022-08-14T14:18:10;31.70;74.80
17728;DHT22;8984;49.268;12.302;2022-08-14T14:20:41;31.50;75.60
17728;DHT22;8984;49.268;12.302;2022-08-14T14:23:11;31.40;76.20
17728;DHT22;8984;49.268;12.302;2022-08-14T14:25:40;31.20;76.90
17728;DHT22;8984;49.268;12.302;2022-08-14T14:28:08;30.80;77.30
17728;DHT22;8984;49.268;12.302;2022-08-14T14:30:36;30.60;78.50
17728;DHT22;8984;49.268;12.302;2022-08-14T14:33:07;30.50;77.70
17728;DHT22;8984;49.268;12.302;2022-08-14T14:35:36;30.30;78.10
17728;DHT22;8984;49.268;12.302;2022-08-14T14:38:05;30.20;78.80
17728;DHT22;8984;49.268;12.302;2022-08-14T14:40:33;30.00;79.00
17728;DHT22;8984;49.268;12.302;2022-08-14T14:43:05;29.90;79.20
17728;DHT22;8984;49.268;12.302;2022-08-14T14:45:36;30.10;79.70
17728;DHT22;8984;49.268;12.302;2022-08-14T14:48:06;30.50;79.40
17728;DHT22;8984;49.268;12.302;2022-08-14T14:50:35;30.90;78.50
17728;DHT22;8984;49.268;12.302;2022-08-14T14:53:04;31.10;77.80
17728;DHT22;8984;49.268;12.302;2022-08-14T14:55:31;31.30;77.80
17728;DHT22;8984;49.268;12.302;2022-08-14T14:57:58;31.20;76.90
17728;DHT22;8984;49.268;12.302;2022-08-14T15:00:25;31.20;77.00
17728;DHT22;8984;49.268;12.302;2022-08-14T15:02:53;31.00;76.40
17728;DHT22;8984;49.268;12.302;2022-08-14T15:05:22;30.80;76.80
17728;DHT22;8984;49.268;12.302;2022-08-14T15:07:51;30.60;77.20
17728;DHT22;8984;49.268;12.302;2022-08-14T15:10:19;31.00;77.20
17728;DHT22;8984;49.268;12.302;2022-08-14T15:12:47;31.20;76.30
17728;DHT22;8984;49.268;12.302;2022-08-14T15:15:13;31.40;76.10
17728;DHT22;8984;49.268;12.302;2022-08-14T15:17:40;31.70;76.10
17728;DHT22;8984;49.268;12.302;2022-08-14T15:20:10;31.90;75.20
17728;DHT22;8984;49.268;12.302;2022-08-14T15:22:38;31.60;74.00
17728;DHT22;8984;49.268;12.302;2022-08-14T15:25:08;31.60;74.30
17728;DHT22;8984;49.268;12.302;2022-08-14T15:27:36;31.60;74.20
17728;DHT22;8984;49.268;12.302;2022-08-14T15:30:04;31.80;74.20
17728;DHT22;8984;49.268;12.302;2022-08-14T15:32:31;31.80;73.50
17728;DHT22;8984;49.268;12.302;2022-08-14T15:34:58;31.80;73.30
17728;DHT22;8984;49.268;12.302;2022-08-14T15:37:26;31.80;73.80
17728;DHT22;8984;49.268;12.302;2022-08-14T15:39:53;31.80;73.20
17728;DHT22;8984;49.268;12.302;2022-08-14T15:42:22;31.90;73.60
17728;DHT22;8984;49.268;12.302;2022-08-14T15:44:50;31.90;73.80